sensor_id;sensor_type;location;lat;lon;timestamp;P1;durP1;ratioP1;P2;durP2;ratioP2
19149;SDS011;9707;49.158;8.632;2022-12-18T00:00:42;38.65;;;25.58;;
19149;SDS011;9707;49.158;8.632;2022-12-18T00:03:08;40.03;;;26.85;;
19149;SDS011;9707;49.158;8.632;2022-12-18T00:05:34;41.05;;;25.38;;
19149;SDS011;9707;49.158;8.632;2022-12-18T00:08:00;39.20;;;26.00;;
19149;SDS011;9707;49.158;8.632;2022-12-18T00:10:25;44.30;;;25.90;;
19149;SDS011;9707;49.158;8.632;2022-12-18T00:12:51;39.75;;;26.15;;
19149;SDS011;9707;49.158;8.632;2022-12-18T00:15:17;43.83;;;27.17;;
19149;SDS011;9707;49.158;8.632;2022-12-18T00:17:42;43.00;;;27.45;;
19149;SDS011;9707;49.158;8.632;2022-12-18T00:20:07;49.88;;;31.13;;
19149;SDS011;9707;49.158;8.632;2022-12-18T00:22:33;54.42;;;31.75;;
19149;SDS011;9707;49.158;8.632;2022-12-18T00:24:58;51.93;;;30.30;;
19149;SDS011;9707;49.158;8.632;2022-12-18T00:27:24;51.60;;;30.10;;
19149;SDS011;9707;49.158;8.632;2022-12-18T00:29:49;50.45;;;29.25;;
19149;SDS011;9707;49.158;8.632;2022-12-18T00:32:15;48.00;;;28.35;;
19149;SDS011;9707;49.158;8.632;2022-12-18T00:34:40;44.03;;;25.67;;
19149;SDS011;9707;49.158;8.632;2022-12-18T00:37:05;43.58;;;26.00;;
19149;SDS011;9707;49.158;8.632;2022-12-18T00:39:30;45.07;;;26.13;;
19149;SDS011;9707;49.158;8.632;2022-12-18T00:41:56;44.70;;;25.85;;
19149;SDS011;9707;49.158;8.632;2022-12-18T00:44:40;38.70;;;25.42;;
19149;SDS011;9707;49.158;8.632;2022-12-18T00:47:05;40.45;;;25.13;;
19149;SDS011;9707;49.158;8.632;2022-12-18T00:49:30;38.15;;;22.55;;
19149;SDS011;9707;49.158;8.632;2022-12-18T00:51:55;44.28;;;25.65;;
19149;SDS011;9707;49.158;8.632;2022-12-18T00:54:21;44.03;;;26.50;;
19149;SDS011;9707;49.158;8.632;2022-12-18T00:56:46;41.30;;;25.23;;
19149;SDS011;9707;49.158;8.632;2022-12-18T00:59:11;42.47;;;25.40;;
19149;SDS011;9707;49.158;8.632;2022-12-18T01:01:36;41.30;;;23.23;;
19149;SDS011;9707;49.158;8.632;2022-12-18T01:04:02;46.08;;;24.73;;
19149;SDS011;9707;49.158;8.632;2022-12-18T01:06:28;39.90;;;24.08;;
19149;SDS011;9707;49.158;8.632;2022-12-18T01:08:54;36.73;;;23.53;;
19149;SDS011;9707;49.158;8.632;2022-12-18T01:11:20;36.57;;;23.37;;
19149;SDS011;9707;49.158;8.632;2022-12-18T01:13:46;36.63;;;23.10;;
19149;SDS011;9707;49.158;8.632;2022-12-18T01:16:13;37.97;;;24.60;;
19149;SDS011;9707;49.158;8.632;2022-12-18T01:18:40;38.28;;;24.05;;
19149;SDS011;9707;49.158;8.632;2022-12-18T01:21:08;34.57;;;23.60;;
19149;SDS011;9707;49.158;8.632;2022-12-18T01:23:36;38.63;;;23.85;;
19149;SDS011;9707;49.158;8.632;2022-12-18T01:26:09;38.20;;;23.10;;
19149;SDS011;9707;49.158;8.632;2022-12-18T01:28:37;37.80;;;23.30;;
19149;SDS011;9707;49.158;8.632;2022-12-18T01:33:45;33.80;;;21.73;;
19149;SDS011;9707;49.158;8.632;2022-12-18T01:36:14;33.03;;;21.87;;
19149;SDS011;9707;49.158;8.632;2022-12-18T01:39:02;38.22;;;23.98;;
19149;SDS011;9707;49.158;8.632;2022-12-18T01:41:30;40.73;;;24.27;;
19149;SDS011;9707;49.158;8.632;2022-12-18T01:49:48;37.93;;;22.40;;
19149;SDS011;9707;49.158;8.632;2022-12-18T01:52:14;33.87;;;22.20;;
19149;SDS011;9707;49.158;8.632;2022-12-18T01:54:40;35.97;;;22.37;;
19149;SDS011;9707;49.158;8.632;2022-12-18T01:57:05;35.40;;;21.77;;
19149;SDS011;9707;49.158;8.632;2022-12-18T01:59:31;34.17;;;21.45;;
19149;SDS011;9707;49.158;8.632;2022-12-18T02:01:58;34.30;;;21.97;;
19149;SDS011;9707;49.158;8.632;2022-12-18T02:04:25;34.17;;;22.27;;
19149;SDS011;9707;49.158;8.632;2022-12-18T02:06:57;31.13;;;20.97;;
19149;SDS011;9707;49.158;8.632;2022-12-18T02:09:33;32.17;;;19.95;;
19149;SDS011;9707;49.158;8.632;2022-12-18T02:12:13;32.97;;;20.80;;
19149;SDS011;9707;49.158;8.632;2022-12-18T02:14:45;31.40;;;19.50;;
19149;SDS011;9707;49.158;8.632;2022-12-18T02:27:54;31.23;;;20.20;;
19149;SDS011;9707;49.158;8.632;2022-12-18T02:30:24;34.13;;;20.77;;
19149;SDS011;9707;49.158;8.632;2022-12-18T02:32:52;31.87;;;21.00;;
19149;SDS011;9707;49.158;8.632;2022-12-18T02:35:21;32.67;;;21.10;;
19149;SDS011;9707;49.158;8.632;2022-12-18T02:37:49;32.47;;;20.83;;
19149;SDS011;9707;49.158;8.632;2022-12-18T02:40:19;36.87;;;21.83;;
19149;SDS011;9707;49.158;8.632;2022-12-18T02:42:46;35.73;;;21.40;;
19149;SDS011;9707;49.158;8.632;2022-12-18T02:45:11;32.10;;;21.30;;
19149;SDS011;9707;49.158;8.632;2022-12-18T02:47:38;33.55;;;21.60;;
19149;SDS011;9707;49.158;8.632;2022-12-18T02:58:32;34.30;;;21.30;;
19149;SDS011;9707;49.158;8.632;2022-12-18T03:04:16;38.55;;;22.20;;
19149;SDS011;9707;49.158;8.632;2022-12-18T03:07:08;30.95;;;21.02;;
19149;SDS011;9707;49.158;8.632;2022-12-18T03:09:40;34.00;;;20.85;;
19149;SDS011;9707;49.158;8.632;2022-12-18T03:12:14;34.33;;;22.00;;
19149;SDS011;9707;49.158;8.632;2022-12-18T03:15:03;36.50;;;22.90;;
19149;SDS011;9707;49.158;8.632;2022-12-18T03:17:32;38.65;;;21.00;;
19149;SDS011;9707;49.158;8.632;2022-12-18T03:20:00;34.38;;;21.48;;
19149;SDS011;9707;49.158;8.632;2022-12-18T03:22:30;36.37;;;21.77;;
19149;SDS011;9707;49.158;8.632;2022-12-18T03:24:58;31.35;;;20.13;;
19149;SDS011;9707;49.158;8.632;2022-12-18T03:27:27;29.80;;;18.42;;
19149;SDS011;9707;49.158;8.632;2022-12-18T03:30:12;29.63;;;18.98;;
19149;SDS011;9707;49.158;8.632;2022-12-18T03:35:11;30.50;;;20.08;;
19149;SDS011;9707;49.158;8.632;2022-12-18T03:37:39;27.60;;;19.15;;
19149;SDS011;9707;49.158;8.632;2022-12-18T03:40:05;33.78;;;19.65;;
19149;SDS011;9707;49.158;8.632;2022-12-18T03:48:08;26.23;;;16.23;;
19149;SDS011;9707;49.158;8.632;2022-12-18T03:50:45;24.27;;;15.88;;
19149;SDS011;9707;49.158;8.632;2022-12-18T03:53:32;26.95;;;16.52;;
19149;SDS011;9707;49.158;8.632;2022-12-18T03:56:06;30.77;;;17.48;;
19149;SDS011;9707;49.158;8.632;2022-12-18T03:58:34;26.00;;;17.25;;
19149;SDS011;9707;49.158;8.632;2022-12-18T04:01:03;30.27;;;19.05;;
19149;SDS011;9707;49.158;8.632;2022-12-18T04:03:31;29.10;;;18.23;;
19149;SDS011;9707;49.158;8.632;2022-12-18T04:05:59;29.85;;;18.15;;
19149;SDS011;9707;49.158;8.632;2022-12-18T04:08:26;27.83;;;18.15;;
19149;SDS011;9707;49.158;8.632;2022-12-18T04:10:52;28.48;;;18.75;;
19149;SDS011;9707;49.158;8.632;2022-12-18T04:13:24;26.58;;;17.70;;
19149;SDS011;9707;49.158;8.632;2022-12-18T04:15:53;26.45;;;17.77;;
19149;SDS011;9707;49.158;8.632;2022-12-18T04:18:19;26.13;;;17.48;;
19149;SDS011;9707;49.158;8.632;2022-12-18T04:20:44;30.60;;;18.90;;
19149;SDS011;9707;49.158;8.632;2022-12-18T04:23:10;30.00;;;17.95;;
19149;SDS011;9707;49.158;8.632;2022-12-18T04:25:35;28.83;;;18.80;;
19149;SDS011;9707;49.158;8.632;2022-12-18T04:28:00;27.50;;;18.15;;
19149;SDS011;9707;49.158;8.632;2022-12-18T04:30:26;25.30;;;17.35;;
19149;SDS011;9707;49.158;8.632;2022-12-18T04:32:51;29.27;;;18.25;;
19149;SDS011;9707;49.158;8.632;2022-12-18T04:35:17;28.17;;;17.92;;
19149;SDS011;9707;49.158;8.632;2022-12-18T04:37:42;31.58;;;18.30;;
19149;SDS011;9707;49.158;8.632;2022-12-18T04:40:08;33.30;;;19.27;;
19149;SDS011;9707;49.158;8.632;2022-12-18T04:42:34;30.98;;;17.58;;
19149;SDS011;9707;49.158;8.632;2022-12-18T04:44:59;29.13;;;18.85;;
19149;SDS011;9707;49.158;8.632;2022-12-18T04:47:24;30.73;;;19.48;;
19149;SDS011;9707;49.158;8.632;2022-12-18T04:49:50;29.55;;;18.30;;
19149;SDS011;9707;49.158;8.632;2022-12-18T04:52:15;26.08;;;18.15;;
19149;SDS011;9707;49.158;8.632;2022-12-18T04:54:40;26.67;;;18.15;;
19149;SDS011;9707;49.158;8.632;2022-12-18T04:57:05;31.92;;;18.40;;
19149;SDS011;9707;49.158;8.632;2022-12-18T04:59:31;25.27;;;15.77;;
19149;SDS011;9707;49.158;8.632;2022-12-18T05:01:56;30.92;;;18.80;;
19149;SDS011;9707;49.158;8.632;2022-12-18T05:04:21;28.70;;;18.58;;
19149;SDS011;9707;49.158;8.632;2022-12-18T05:06:46;25.02;;;15.27;;
19149;SDS011;9707;49.158;8.632;2022-12-18T05:09:12;24.90;;;14.93;;
19149;SDS011;9707;49.158;8.632;2022-12-18T05:11:37;22.88;;;14.25;;
19149;SDS011;9707;49.158;8.632;2022-12-18T05:14:02;22.23;;;13.68;;
19149;SDS011;9707;49.158;8.632;2022-12-18T05:16:28;24.80;;;14.88;;
19149;SDS011;9707;49.158;8.632;2022-12-18T05:18:53;24.70;;;13.80;;
19149;SDS011;9707;49.158;8.632;2022-12-18T05:21:18;20.55;;;13.27;;
19149;SDS011;9707;49.158;8.632;2022-12-18T05:23:44;22.33;;;12.68;;
19149;SDS011;9707;49.158;8.632;2022-12-18T05:26:09;22.52;;;14.20;;
19149;SDS011;9707;49.158;8.632;2022-12-18T05:28:40;23.88;;;12.88;;
19149;SDS011;9707;49.158;8.632;2022-12-18T05:31:06;21.77;;;13.15;;
19149;SDS011;9707;49.158;8.632;2022-12-18T05:33:32;20.55;;;12.38;;
19149;SDS011;9707;49.158;8.632;2022-12-18T05:35:59;23.13;;;14.77;;
19149;SDS011;9707;49.158;8.632;2022-12-18T05:38:26;20.98;;;12.50;;
19149;SDS011;9707;49.158;8.632;2022-12-18T05:40:52;20.88;;;13.23;;
19149;SDS011;9707;49.158;8.632;2022-12-18T05:43:18;23.00;;;13.48;;
19149;SDS011;9707;49.158;8.632;2022-12-18T05:45:44;22.98;;;12.95;;
19149;SDS011;9707;49.158;8.632;2022-12-18T05:48:10;21.05;;;13.25;;
19149;SDS011;9707;49.158;8.632;2022-12-18T05:50:36;25.30;;;13.70;;
19149;SDS011;9707;49.158;8.632;2022-12-18T05:53:03;23.88;;;14.27;;
19149;SDS011;9707;49.158;8.632;2022-12-18T05:55:29;20.05;;;12.18;;
19149;SDS011;9707;49.158;8.632;2022-12-18T05:57:58;19.52;;;11.13;;
19149;SDS011;9707;49.158;8.632;2022-12-18T06:00:24;20.50;;;12.55;;
19149;SDS011;9707;49.158;8.632;2022-12-18T06:02:50;18.08;;;11.32;;
19149;SDS011;9707;49.158;8.632;2022-12-18T06:05:16;19.33;;;11.68;;
19149;SDS011;9707;49.158;8.632;2022-12-18T06:07:41;18.02;;;11.05;;
19149;SDS011;9707;49.158;8.632;2022-12-18T06:10:06;20.48;;;13.77;;
19149;SDS011;9707;49.158;8.632;2022-12-18T06:12:32;28.45;;;17.08;;
19149;SDS011;9707;49.158;8.632;2022-12-18T06:14:58;19.40;;;11.57;;
19149;SDS011;9707;49.158;8.632;2022-12-18T06:17:28;19.42;;;12.52;;
19149;SDS011;9707;49.158;8.632;2022-12-18T06:19:54;24.33;;;13.73;;
19149;SDS011;9707;49.158;8.632;2022-12-18T06:22:20;22.38;;;13.07;;
19149;SDS011;9707;49.158;8.632;2022-12-18T06:24:45;23.13;;;13.38;;
19149;SDS011;9707;49.158;8.632;2022-12-18T06:27:10;23.88;;;14.23;;
19149;SDS011;9707;49.158;8.632;2022-12-18T06:29:36;21.60;;;13.63;;
19149;SDS011;9707;49.158;8.632;2022-12-18T06:32:01;21.63;;;13.00;;
19149;SDS011;9707;49.158;8.632;2022-12-18T06:34:26;21.63;;;10.13;;
19149;SDS011;9707;49.158;8.632;2022-12-18T06:36:51;18.92;;;11.82;;
19149;SDS011;9707;49.158;8.632;2022-12-18T06:39:17;23.23;;;14.40;;
19149;SDS011;9707;49.158;8.632;2022-12-18T06:41:42;18.05;;;11.50;;
19149;SDS011;9707;49.158;8.632;2022-12-18T06:44:07;21.48;;;12.02;;
19149;SDS011;9707;49.158;8.632;2022-12-18T06:46:32;20.33;;;11.05;;
19149;SDS011;9707;49.158;8.632;2022-12-18T06:48:58;19.40;;;12.20;;
19149;SDS011;9707;49.158;8.632;2022-12-18T06:51:24;22.02;;;11.68;;
19149;SDS011;9707;49.158;8.632;2022-12-18T06:53:50;19.90;;;12.82;;
19149;SDS011;9707;49.158;8.632;2022-12-18T06:56:15;22.48;;;12.63;;
19149;SDS011;9707;49.158;8.632;2022-12-18T06:58:41;17.83;;;11.32;;
19149;SDS011;9707;49.158;8.632;2022-12-18T07:01:07;22.23;;;13.93;;
19149;SDS011;9707;49.158;8.632;2022-12-18T07:03:34;21.80;;;12.98;;
19149;SDS011;9707;49.158;8.632;2022-12-18T07:06:00;21.27;;;12.27;;
19149;SDS011;9707;49.158;8.632;2022-12-18T07:08:26;21.35;;;13.68;;
19149;SDS011;9707;49.158;8.632;2022-12-18T07:10:51;19.02;;;11.55;;
19149;SDS011;9707;49.158;8.632;2022-12-18T07:13:18;18.55;;;11.73;;
19149;SDS011;9707;49.158;8.632;2022-12-18T07:15:44;22.10;;;12.73;;
19149;SDS011;9707;49.158;8.632;2022-12-18T07:18:09;22.58;;;13.90;;
19149;SDS011;9707;49.158;8.632;2022-12-18T07:20:35;27.67;;;17.20;;
19149;SDS011;9707;49.158;8.632;2022-12-18T07:23:04;27.67;;;17.25;;
19149;SDS011;9707;49.158;8.632;2022-12-18T07:25:30;29.30;;;18.83;;
19149;SDS011;9707;49.158;8.632;2022-12-18T07:27:58;27.23;;;16.83;;
19149;SDS011;9707;49.158;8.632;2022-12-18T07:30:23;23.48;;;14.45;;
19149;SDS011;9707;49.158;8.632;2022-12-18T07:32:49;25.75;;;16.88;;
19149;SDS011;9707;49.158;8.632;2022-12-18T07:35:14;26.50;;;16.27;;
19149;SDS011;9707;49.158;8.632;2022-12-18T07:37:39;29.52;;;17.67;;
19149;SDS011;9707;49.158;8.632;2022-12-18T07:40:05;26.80;;;17.25;;
19149;SDS011;9707;49.158;8.632;2022-12-18T07:42:31;29.85;;;17.35;;
19149;SDS011;9707;49.158;8.632;2022-12-18T07:44:56;32.45;;;20.65;;
19149;SDS011;9707;49.158;8.632;2022-12-18T07:47:26;28.23;;;17.17;;
19149;SDS011;9707;49.158;8.632;2022-12-18T07:49:51;25.50;;;17.15;;
19149;SDS011;9707;49.158;8.632;2022-12-18T07:52:17;25.23;;;17.13;;
19149;SDS011;9707;49.158;8.632;2022-12-18T07:54:42;25.88;;;17.40;;
19149;SDS011;9707;49.158;8.632;2022-12-18T07:57:07;27.40;;;16.40;;
19149;SDS011;9707;49.158;8.632;2022-12-18T07:59:33;26.23;;;16.30;;
19149;SDS011;9707;49.158;8.632;2022-12-18T08:01:59;25.77;;;16.45;;
19149;SDS011;9707;49.158;8.632;2022-12-18T08:04:24;26.90;;;15.88;;
19149;SDS011;9707;49.158;8.632;2022-12-18T08:06:50;26.73;;;17.60;;
19149;SDS011;9707;49.158;8.632;2022-12-18T08:09:15;25.98;;;16.70;;
19149;SDS011;9707;49.158;8.632;2022-12-18T08:11:41;26.85;;;17.90;;
19149;SDS011;9707;49.158;8.632;2022-12-18T08:14:06;33.50;;;18.50;;
19149;SDS011;9707;49.158;8.632;2022-12-18T08:16:31;29.15;;;18.42;;
19149;SDS011;9707;49.158;8.632;2022-12-18T08:18:57;29.33;;;19.98;;
19149;SDS011;9707;49.158;8.632;2022-12-18T08:21:23;30.05;;;19.00;;
19149;SDS011;9707;49.158;8.632;2022-12-18T08:23:51;31.90;;;20.23;;
19149;SDS011;9707;49.158;8.632;2022-12-18T08:26:18;35.13;;;20.40;;
19149;SDS011;9707;49.158;8.632;2022-12-18T08:28:44;28.10;;;16.63;;
19149;SDS011;9707;49.158;8.632;2022-12-18T08:31:10;26.95;;;18.08;;
19149;SDS011;9707;49.158;8.632;2022-12-18T08:33:35;29.83;;;17.20;;
19149;SDS011;9707;49.158;8.632;2022-12-18T08:36:03;27.30;;;15.88;;
19149;SDS011;9707;49.158;8.632;2022-12-18T08:38:29;32.55;;;18.67;;
19149;SDS011;9707;49.158;8.632;2022-12-18T08:43:26;32.53;;;18.40;;
19149;SDS011;9707;49.158;8.632;2022-12-18T08:46:11;23.35;;;14.93;;
19149;SDS011;9707;49.158;8.632;2022-12-18T08:48:37;27.50;;;17.15;;
19149;SDS011;9707;49.158;8.632;2022-12-18T08:51:02;27.52;;;17.45;;
19149;SDS011;9707;49.158;8.632;2022-12-18T08:53:28;27.38;;;15.93;;
19149;SDS011;9707;49.158;8.632;2022-12-18T08:55:53;26.27;;;17.50;;
19149;SDS011;9707;49.158;8.632;2022-12-18T08:58:18;27.20;;;15.43;;
19149;SDS011;9707;49.158;8.632;2022-12-18T09:00:44;23.25;;;14.82;;
19149;SDS011;9707;49.158;8.632;2022-12-18T09:03:11;24.35;;;14.65;;
19149;SDS011;9707;49.158;8.632;2022-12-18T09:05:37;23.42;;;14.07;;
19149;SDS011;9707;49.158;8.632;2022-12-18T09:08:02;27.30;;;15.38;;
19149;SDS011;9707;49.158;8.632;2022-12-18T09:10:27;21.35;;;13.52;;
19149;SDS011;9707;49.158;8.632;2022-12-18T09:12:53;22.63;;;13.77;;
19149;SDS011;9707;49.158;8.632;2022-12-18T09:15:18;25.25;;;15.27;;
19149;SDS011;9707;49.158;8.632;2022-12-18T09:17:43;21.40;;;12.77;;
19149;SDS011;9707;49.158;8.632;2022-12-18T09:20:09;23.15;;;13.20;;
19149;SDS011;9707;49.158;8.632;2022-12-18T09:22:34;21.70;;;13.07;;
19149;SDS011;9707;49.158;8.632;2022-12-18T09:24:59;22.58;;;12.93;;
19149;SDS011;9707;49.158;8.632;2022-12-18T09:27:25;18.23;;;10.32;;
19149;SDS011;9707;49.158;8.632;2022-12-18T09:29:50;25.23;;;14.23;;
19149;SDS011;9707;49.158;8.632;2022-12-18T09:32:15;23.40;;;14.05;;
19149;SDS011;9707;49.158;8.632;2022-12-18T09:34:41;18.95;;;11.50;;
19149;SDS011;9707;49.158;8.632;2022-12-18T09:37:06;20.70;;;12.55;;
19149;SDS011;9707;49.158;8.632;2022-12-18T09:39:31;21.65;;;12.57;;
19149;SDS011;9707;49.158;8.632;2022-12-18T09:41:57;19.33;;;10.93;;
19149;SDS011;9707;49.158;8.632;2022-12-18T09:44:27;21.48;;;13.00;;
19149;SDS011;9707;49.158;8.632;2022-12-18T09:49:43;21.25;;;12.23;;
19149;SDS011;9707;49.158;8.632;2022-12-18T09:52:21;26.75;;;15.68;;
19149;SDS011;9707;49.158;8.632;2022-12-18T09:55:03;20.73;;;12.70;;
19149;SDS011;9707;49.158;8.632;2022-12-18T09:58:12;18.20;;;10.90;;
19149;SDS011;9707;49.158;8.632;2022-12-18T10:00:59;22.70;;;12.90;;
19149;SDS011;9707;49.158;8.632;2022-12-18T10:03:24;22.48;;;14.68;;
19149;SDS011;9707;49.158;8.632;2022-12-18T10:08:33;25.55;;;17.15;;
19149;SDS011;9707;49.158;8.632;2022-12-18T10:13:44;20.90;;;12.13;;
19149;SDS011;9707;49.158;8.632;2022-12-18T10:16:19;21.95;;;13.38;;
19149;SDS011;9707;49.158;8.632;2022-12-18T10:27:18;25.88;;;15.57;;
19149;SDS011;9707;49.158;8.632;2022-12-18T10:29:48;21.23;;;12.60;;
19149;SDS011;9707;49.158;8.632;2022-12-18T10:32:15;27.50;;;16.60;;
19149;SDS011;9707;49.158;8.632;2022-12-18T10:34:50;24.33;;;13.15;;
19149;SDS011;9707;49.158;8.632;2022-12-18T10:37:20;19.05;;;11.02;;
19149;SDS011;9707;49.158;8.632;2022-12-18T10:40:07;20.67;;;11.85;;
19149;SDS011;9707;49.158;8.632;2022-12-18T10:42:34;21.17;;;12.63;;
19149;SDS011;9707;49.158;8.632;2022-12-18T10:45:33;23.38;;;14.98;;
19149;SDS011;9707;49.158;8.632;2022-12-18T10:47:51;20.27;;;11.75;;
19149;SDS011;9707;49.158;8.632;2022-12-18T10:50:34;22.13;;;12.75;;
19149;SDS011;9707;49.158;8.632;2022-12-18T10:53:02;28.00;;;16.83;;
19149;SDS011;9707;49.158;8.632;2022-12-18T10:58:24;19.25;;;12.77;;
19149;SDS011;9707;49.158;8.632;2022-12-18T11:01:10;26.63;;;14.50;;
19149;SDS011;9707;49.158;8.632;2022-12-18T11:06:08;19.15;;;11.55;;
19149;SDS011;9707;49.158;8.632;2022-12-18T11:08:38;22.08;;;13.35;;
19149;SDS011;9707;49.158;8.632;2022-12-18T11:11:07;23.92;;;14.27;;
19149;SDS011;9707;49.158;8.632;2022-12-18T11:13:48;25.75;;;13.55;;
19149;SDS011;9707;49.158;8.632;2022-12-18T11:16:42;24.60;;;15.07;;
19149;SDS011;9707;49.158;8.632;2022-12-18T11:21:53;26.35;;;16.27;;
19149;SDS011;9707;49.158;8.632;2022-12-18T11:24:24;27.73;;;17.75;;
19149;SDS011;9707;49.158;8.632;2022-12-18T11:26:54;28.08;;;14.65;;
19149;SDS011;9707;49.158;8.632;2022-12-18T11:29:23;22.98;;;13.05;;
19149;SDS011;9707;49.158;8.632;2022-12-18T11:34:46;20.90;;;12.07;;
19149;SDS011;9707;49.158;8.632;2022-12-18T11:37:16;22.55;;;12.13;;
19149;SDS011;9707;49.158;8.632;2022-12-18T11:39:51;27.33;;;15.38;;
19149;SDS011;9707;49.158;8.632;2022-12-18T11:42:34;26.92;;;16.20;;
19149;SDS011;9707;49.158;8.632;2022-12-18T11:50:26;35.78;;;19.95;;
19149;SDS011;9707;49.158;8.632;2022-12-18T11:52:57;32.22;;;18.95;;
19149;SDS011;9707;49.158;8.632;2022-12-18T12:00:40;28.33;;;17.67;;
19149;SDS011;9707;49.158;8.632;2022-12-18T12:03:20;29.13;;;16.17;;
19149;SDS011;9707;49.158;8.632;2022-12-18T12:09:09;24.70;;;12.38;;
19149;SDS011;9707;49.158;8.632;2022-12-18T12:14:53;29.02;;;17.40;;
19149;SDS011;9707;49.158;8.632;2022-12-18T12:17:40;33.03;;;19.52;;
19149;SDS011;9707;49.158;8.632;2022-12-18T12:20:15;32.47;;;17.52;;
19149;SDS011;9707;49.158;8.632;2022-12-18T12:22:53;27.38;;;15.05;;
19149;SDS011;9707;49.158;8.632;2022-12-18T12:25:33;24.45;;;14.30;;
19149;SDS011;9707;49.158;8.632;2022-12-18T12:33:57;25.02;;;12.57;;
19149;SDS011;9707;49.158;8.632;2022-12-18T12:39:11;28.90;;;16.45;;
19149;SDS011;9707;49.158;8.632;2022-12-18T12:41:42;22.27;;;13.13;;
19149;SDS011;9707;49.158;8.632;2022-12-18T12:44:35;30.27;;;16.80;;
19149;SDS011;9707;49.158;8.632;2022-12-18T12:47:38;33.83;;;18.92;;
19149;SDS011;9707;49.158;8.632;2022-12-18T12:49:59;26.30;;;15.88;;
19149;SDS011;9707;49.158;8.632;2022-12-18T12:52:29;34.85;;;18.88;;
19149;SDS011;9707;49.158;8.632;2022-12-18T12:54:59;37.10;;;21.60;;
19149;SDS011;9707;49.158;8.632;2022-12-18T12:57:30;33.20;;;19.40;;
19149;SDS011;9707;49.158;8.632;2022-12-18T13:00:03;22.42;;;12.48;;
19149;SDS011;9707;49.158;8.632;2022-12-18T13:10:36;30.55;;;16.63;;
19149;SDS011;9707;49.158;8.632;2022-12-18T13:13:14;30.77;;;17.85;;
19149;SDS011;9707;49.158;8.632;2022-12-18T13:18:14;30.25;;;15.35;;
19149;SDS011;9707;49.158;8.632;2022-12-18T13:20:42;24.45;;;15.43;;
19149;SDS011;9707;49.158;8.632;2022-12-18T13:23:23;29.70;;;17.00;;
19149;SDS011;9707;49.158;8.632;2022-12-18T13:28:49;24.20;;;12.50;;
19149;SDS011;9707;49.158;8.632;2022-12-18T13:31:12;25.63;;;13.63;;
19149;SDS011;9707;49.158;8.632;2022-12-18T13:33:39;23.55;;;11.52;;
19149;SDS011;9707;49.158;8.632;2022-12-18T13:38:39;21.58;;;12.07;;
19149;SDS011;9707;49.158;8.632;2022-12-18T13:43:52;32.47;;;18.58;;
19149;SDS011;9707;49.158;8.632;2022-12-18T13:49:05;21.77;;;11.85;;
19149;SDS011;9707;49.158;8.632;2022-12-18T13:51:46;22.10;;;12.73;;
19149;SDS011;9707;49.158;8.632;2022-12-18T13:54:21;26.88;;;14.88;;
19149;SDS011;9707;49.158;8.632;2022-12-18T13:56:54;28.73;;;15.20;;
19149;SDS011;9707;49.158;8.632;2022-12-18T14:01:51;33.17;;;18.38;;
19149;SDS011;9707;49.158;8.632;2022-12-18T14:04:25;31.30;;;19.08;;
19149;SDS011;9707;49.158;8.632;2022-12-18T14:07:01;30.00;;;16.30;;
19149;SDS011;9707;49.158;8.632;2022-12-18T14:09:29;34.15;;;17.65;;
19149;SDS011;9707;49.158;8.632;2022-12-18T14:11:58;20.55;;;11.32;;
19149;SDS011;9707;49.158;8.632;2022-12-18T14:14:44;34.05;;;17.38;;
19149;SDS011;9707;49.158;8.632;2022-12-18T14:17:12;29.30;;;16.75;;
19149;SDS011;9707;49.158;8.632;2022-12-18T14:19:48;30.60;;;16.63;;
19149;SDS011;9707;49.158;8.632;2022-12-18T14:22:19;31.67;;;17.83;;
19149;SDS011;9707;49.158;8.632;2022-12-18T14:24:47;36.55;;;22.73;;
19149;SDS011;9707;49.158;8.632;2022-12-18T14:27:29;33.70;;;19.40;;
19149;SDS011;9707;49.158;8.632;2022-12-18T14:29:54;34.20;;;19.58;;
19149;SDS011;9707;49.158;8.632;2022-12-18T14:32:20;35.47;;;21.13;;
19149;SDS011;9707;49.158;8.632;2022-12-18T14:34:50;35.30;;;19.73;;
19149;SDS011;9707;49.158;8.632;2022-12-18T14:37:18;26.70;;;14.48;;
19149;SDS011;9707;49.158;8.632;2022-12-18T14:39:56;37.13;;;18.80;;
19149;SDS011;9707;49.158;8.632;2022-12-18T14:42:22;34.90;;;17.85;;
19149;SDS011;9707;49.158;8.632;2022-12-18T14:44:48;40.10;;;19.55;;
19149;SDS011;9707;49.158;8.632;2022-12-18T14:47:14;33.33;;;17.10;;
19149;SDS011;9707;49.158;8.632;2022-12-18T14:49:41;28.08;;;14.38;;
19149;SDS011;9707;49.158;8.632;2022-12-18T14:52:27;46.28;;;22.08;;
19149;SDS011;9707;49.158;8.632;2022-12-18T14:54:56;42.40;;;19.55;;
19149;SDS011;9707;49.158;8.632;2022-12-18T14:57:25;54.72;;;22.42;;
19149;SDS011;9707;49.158;8.632;2022-12-18T15:00:04;42.42;;;21.80;;
19149;SDS011;9707;49.158;8.632;2022-12-18T15:02:30;45.92;;;22.70;;
19149;SDS011;9707;49.158;8.632;2022-12-18T15:07:45;39.67;;;22.65;;
19149;SDS011;9707;49.158;8.632;2022-12-18T15:10:16;38.88;;;20.15;;
19149;SDS011;9707;49.158;8.632;2022-12-18T15:20:45;31.42;;;15.73;;
19149;SDS011;9707;49.158;8.632;2022-12-18T15:23:27;40.53;;;21.80;;
19149;SDS011;9707;49.158;8.632;2022-12-18T15:25:56;30.00;;;16.75;;
19149;SDS011;9707;49.158;8.632;2022-12-18T15:28:43;35.33;;;19.27;;
19149;SDS011;9707;49.158;8.632;2022-12-18T15:33:40;32.47;;;19.02;;
19149;SDS011;9707;49.158;8.632;2022-12-18T15:36:16;37.38;;;19.77;;
19149;SDS011;9707;49.158;8.632;2022-12-18T15:38:43;32.15;;;18.08;;
19149;SDS011;9707;49.158;8.632;2022-12-18T15:41:15;27.75;;;15.10;;
19149;SDS011;9707;49.158;8.632;2022-12-18T15:43:42;34.22;;;18.45;;
19149;SDS011;9707;49.158;8.632;2022-12-18T15:46:16;35.00;;;19.63;;
19149;SDS011;9707;49.158;8.632;2022-12-18T15:48:44;31.48;;;18.10;;
19149;SDS011;9707;49.158;8.632;2022-12-18T15:51:13;31.90;;;17.95;;
19149;SDS011;9707;49.158;8.632;2022-12-18T15:53:41;41.42;;;21.58;;
19149;SDS011;9707;49.158;8.632;2022-12-18T15:56:10;29.42;;;16.00;;
19149;SDS011;9707;49.158;8.632;2022-12-18T15:58:55;29.85;;;15.00;;
19149;SDS011;9707;49.158;8.632;2022-12-18T16:01:22;30.17;;;17.23;;
19149;SDS011;9707;49.158;8.632;2022-12-18T16:03:48;31.42;;;17.83;;
19149;SDS011;9707;49.158;8.632;2022-12-18T16:06:14;32.13;;;16.33;;
19149;SDS011;9707;49.158;8.632;2022-12-18T16:08:39;28.17;;;15.75;;
19149;SDS011;9707;49.158;8.632;2022-12-18T16:11:04;32.30;;;19.20;;
19149;SDS011;9707;49.158;8.632;2022-12-18T16:13:30;26.52;;;15.57;;
19149;SDS011;9707;49.158;8.632;2022-12-18T16:15:55;27.10;;;15.13;;
19149;SDS011;9707;49.158;8.632;2022-12-18T16:18:21;27.17;;;15.73;;
19149;SDS011;9707;49.158;8.632;2022-12-18T16:20:46;32.15;;;18.17;;
19149;SDS011;9707;49.158;8.632;2022-12-18T16:23:11;29.08;;;16.38;;
19149;SDS011;9707;49.158;8.632;2022-12-18T16:25:37;34.22;;;19.90;;
19149;SDS011;9707;49.158;8.632;2022-12-18T16:28:02;38.40;;;20.98;;
19149;SDS011;9707;49.158;8.632;2022-12-18T16:30:28;30.50;;;17.05;;
19149;SDS011;9707;49.158;8.632;2022-12-18T16:32:58;32.08;;;18.67;;
19149;SDS011;9707;49.158;8.632;2022-12-18T16:35:24;31.45;;;18.65;;
19149;SDS011;9707;49.158;8.632;2022-12-18T16:37:51;32.60;;;18.73;;
19149;SDS011;9707;49.158;8.632;2022-12-18T16:40:17;32.65;;;18.48;;
19149;SDS011;9707;49.158;8.632;2022-12-18T16:42:43;31.05;;;19.10;;
19149;SDS011;9707;49.158;8.632;2022-12-18T16:45:11;28.70;;;16.77;;
19149;SDS011;9707;49.158;8.632;2022-12-18T16:47:39;31.27;;;17.60;;
19149;SDS011;9707;49.158;8.632;2022-12-18T16:50:05;32.03;;;17.58;;
19149;SDS011;9707;49.158;8.632;2022-12-18T16:52:30;20.75;;;12.05;;
19149;SDS011;9707;49.158;8.632;2022-12-18T16:54:56;31.63;;;17.40;;